createdAt,value
2019-01-26T00:00:04.012Z,3.00
2019-01-26T00:01:40.154Z,0.60
2019-01-26T00:03:18.075Z,6.80
2019-01-26T00:04:58.403Z,1.00
2019-01-26T00:06:44.236Z,5.60
2019-01-26T00:08:20.149Z,2.20
2019-01-26T00:09:58.304Z,1.00
2019-01-26T00:11:34.556Z,0.80
2019-01-26T00:13:13.199Z,2.20
2019-01-26T00:14:51.615Z,3.00
2019-01-26T00:16:27.259Z,3.00
2019-01-26T00:18:05.027Z,6.60
2019-01-26T00:19:43.511Z,2.40
2019-01-26T00:21:22.187Z,3.00
2019-01-26T00:22:58.136Z,0.00
2019-01-26T00:24:36.485Z,1.00
2019-01-26T00:26:12.404Z,0.00
2019-01-26T00:27:52.514Z,1.40
2019-01-26T00:29:29.983Z,1.00
2019-01-26T00:31:10.355Z,1.00
2019-01-26T00:32:47.254Z,7.40
2019-01-26T00:34:24.758Z,3.00
2019-01-26T00:36:00.255Z,3.00
2019-01-26T00:37:35.604Z,0.00
2019-01-26T00:39:14.885Z,1.00
2019-01-26T00:40:52.368Z,2.20
2019-01-26T00:42:30.627Z,0.60
2019-01-26T00:44:05.934Z,11.20
2019-01-26T00:45:41.791Z,3.40
2019-01-26T00:47:17.493Z,3.60
2019-01-26T00:49:03.395Z,1.00
2019-01-26T00:50:50.800Z,1.00
2019-01-26T00:52:32.820Z,1.00
2019-01-26T00:54:10.225Z,1.00
2019-01-26T00:55:54.567Z,2.60
2019-01-26T00:57:32.539Z,2.60
2019-01-26T00:59:07.846Z,1.00
2019-01-26T01:00:45.177Z,3.00
2019-01-26T01:02:22.202Z,0.00
2019-01-26T01:04:11.307Z,0.60
2019-01-26T01:05:48.284Z,2.20
2019-01-26T01:07:23.917Z,1.00
2019-01-26T01:09:00.032Z,1.00
2019-01-26T01:10:43.837Z,0.60
2019-01-26T01:12:23.472Z,1.00
2019-01-26T01:13:59.236Z,3.40
2019-01-26T01:15:41.358Z,1.00
2019-01-26T01:17:19.548Z,1.00
2019-01-26T01:19:00.727Z,2.60
2019-01-26T01:20:42.467Z,2.20
2019-01-26T01:22:18.894Z,1.40
2019-01-26T01:23:54.990Z,3.00
2019-01-26T01:25:30.426Z,3.00
2019-01-26T01:27:06.840Z,2.60
2019-01-26T01:28:42.134Z,1.40
2019-01-26T01:30:22.941Z,1.40
2019-01-26T01:31:58.410Z,1.40
2019-01-26T01:33:34.651Z,2.60
2019-01-26T01:35:10.465Z,1.00
2019-01-26T01:36:45.839Z,2.80
2019-01-26T01:38:27.049Z,2.60
2019-01-26T01:40:02.799Z,3.00
2019-01-26T01:41:39.993Z,1.40
2019-01-26T01:43:15.683Z,1.00
2019-01-26T01:44:51.096Z,0.60
2019-01-26T01:46:26.556Z,3.20
2019-01-26T01:48:02.526Z,2.20
2019-01-26T01:49:37.844Z,4.80
2019-01-26T01:51:13.621Z,3.00
2019-01-26T01:52:50.811Z,3.40
2019-01-26T01:54:25.931Z,3.40
2019-01-26T01:56:02.211Z,2.60
2019-01-26T01:57:38.138Z,3.00
2019-01-26T01:59:14.016Z,1.00
2019-01-26T02:00:50.688Z,3.00
2019-01-26T02:02:29.601Z,3.60
2019-01-26T02:04:05.276Z,3.80
2019-01-26T02:05:40.933Z,3.40
2019-01-26T02:07:18.366Z,3.60
2019-01-26T02:08:54.177Z,1.00
2019-01-26T02:10:29.471Z,0.80
2019-01-26T02:12:06.143Z,4.40
2019-01-26T02:13:43.200Z,4.00
2019-01-26T02:15:19.042Z,2.60
2019-01-26T02:16:55.339Z,9.20
2019-01-26T02:18:31.484Z,6.00
2019-01-26T02:20:08.606Z,4.00
2019-01-26T02:21:44.338Z,3.20
2019-01-26T02:23:19.794Z,3.20
2019-01-26T02:24:55.584Z,4.80
2019-01-26T02:26:31.068Z,2.60
2019-01-26T02:28:07.471Z,3.20
2019-01-26T02:29:42.790Z,4.80
2019-01-26T02:31:18.265Z,3.00
2019-01-26T02:32:54.739Z,3.00
2019-01-26T02:34:31.551Z,3.20
2019-01-26T02:36:07.472Z,4.60
2019-01-26T02:37:48.178Z,3.40
2019-01-26T02:39:23.829Z,1.40
2019-01-26T02:40:59.231Z,6.00
2019-01-26T02:42:34.643Z,2.60
2019-01-26T02:44:10.297Z,4.40
2019-01-26T02:45:45.557Z,3.60
2019-01-26T02:47:21.174Z,3.80
2019-01-26T02:48:56.416Z,3.00
2019-01-26T02:50:32.690Z,3.20
2019-01-26T02:52:09.323Z,4.80
2019-01-26T02:53:45.038Z,3.80
2019-01-26T02:55:20.362Z,4.40
2019-01-26T02:57:01.173Z,5.60
2019-01-26T02:58:38.173Z,3.00
2019-01-26T03:00:23.055Z,3.80
2019-01-26T03:02:07.401Z,1.00
2019-01-26T03:03:43.168Z,1.80
2019-01-26T03:05:18.841Z,5.20
2019-01-26T03:06:56.200Z,3.80
2019-01-26T03:08:35.558Z,5.20
2019-01-26T03:10:13.780Z,7.00
2019-01-26T03:11:49.561Z,6.80
2019-01-26T03:13:25.158Z,6.00
2019-01-26T03:15:04.004Z,7.40
2019-01-26T03:16:41.134Z,6.60
2019-01-26T03:18:18.869Z,3.80
2019-01-26T03:19:55.208Z,3.20
2019-01-26T03:21:32.520Z,6.00
2019-01-26T03:23:08.247Z,3.40
2019-01-26T03:24:45.989Z,3.00
2019-01-26T03:26:22.993Z,4.40
2019-01-26T03:28:01.656Z,4.40
2019-01-26T03:29:36.929Z,6.80
2019-01-26T03:31:12.398Z,6.40
2019-01-26T03:32:50.018Z,4.00
2019-01-26T03:34:25.603Z,6.80
2019-01-26T03:36:01.213Z,3.80
2019-01-26T03:37:36.444Z,6.00
2019-01-26T03:39:14.687Z,6.20
2019-01-26T03:40:50.693Z,4.00
2019-01-26T03:42:25.995Z,7.40
2019-01-26T03:44:01.599Z,4.80
2019-01-26T03:45:36.925Z,7.60
2019-01-26T03:47:15.234Z,5.20
2019-01-26T03:48:50.571Z,7.80
2019-01-26T03:50:25.925Z,3.60
2019-01-26T03:52:01.627Z,3.40
2019-01-26T03:53:36.948Z,6.60
2019-01-26T03:55:13.342Z,6.20
2019-01-26T03:56:48.597Z,7.00
2019-01-26T03:58:24.480Z,8.60
2019-01-26T03:59:59.897Z,6.00
2019-01-26T04:01:35.669Z,6.40
2019-01-26T04:03:11.073Z,7.80
2019-01-26T04:04:46.458Z,10.40
2019-01-26T04:06:22.105Z,4.40
2019-01-26T04:07:57.517Z,7.60
2019-01-26T04:09:32.841Z,7.00
2019-01-26T04:11:08.327Z,4.80
2019-01-26T04:12:43.960Z,7.80
2019-01-26T04:14:19.578Z,7.40
2019-01-26T04:15:56.312Z,4.80
2019-01-26T04:17:31.552Z,4.80
2019-01-26T04:19:06.824Z,8.20
2019-01-26T04:20:43.770Z,9.20
2019-01-26T04:22:19.414Z,9.20
2019-01-26T04:23:54.733Z,6.60
2019-01-26T04:25:38.637Z,4.40
2019-01-26T04:27:14.204Z,8.00
2019-01-26T04:28:49.577Z,8.60
2019-01-26T04:30:24.812Z,3.40
2019-01-26T04:32:00.044Z,9.80
2019-01-26T04:33:35.361Z,12.00
2019-01-26T04:35:11.169Z,10.00
2019-01-26T04:36:47.574Z,10.00
2019-01-26T04:38:22.899Z,5.60
2019-01-26T04:39:58.480Z,7.80
2019-01-26T04:41:33.795Z,7.00
2019-01-26T04:43:09.116Z,10.40
2019-01-26T04:44:45.263Z,13.80
2019-01-26T04:46:20.610Z,12.80
2019-01-26T04:47:56.411Z,11.20
2019-01-26T04:49:31.776Z,10.00
2019-01-26T04:51:11.885Z,12.00
2019-01-26T04:52:47.477Z,14.20
2019-01-26T04:54:22.706Z,13.40
2019-01-26T04:55:57.979Z,13.60
2019-01-26T04:57:33.347Z,6.40
2019-01-26T04:59:09.007Z,7.00
2019-01-26T05:00:44.370Z,12.60
2019-01-26T05:02:19.699Z,10.40
2019-01-26T05:03:54.932Z,12.40
2019-01-26T05:05:30.280Z,9.40
2019-01-26T05:07:05.901Z,14.20
2019-01-26T05:08:41.815Z,7.00
2019-01-26T05:10:20.799Z,12.00
2019-01-26T05:11:56.231Z,18.20
2019-01-26T05:13:31.455Z,18.40
2019-01-26T05:15:10.251Z,19.00
2019-01-26T05:16:45.603Z,16.40
2019-01-26T05:18:20.840Z,15.40
2019-01-26T05:19:56.107Z,11.40
2019-01-26T05:21:31.398Z,15.60
2019-01-26T05:23:07.582Z,18.80
2019-01-26T05:24:42.925Z,19.60
2019-01-26T05:26:18.173Z,16.40
2019-01-26T05:27:53.697Z,14.60
2019-01-26T05:29:29.316Z,19.40
2019-01-26T05:31:04.560Z,15.00
2019-01-26T05:32:39.813Z,16.80
2019-01-26T05:34:16.044Z,12.60
2019-01-26T05:35:51.466Z,14.60
2019-01-26T05:37:27.234Z,5.80
2019-01-26T05:39:03.068Z,11.60
2019-01-26T05:40:38.463Z,12.80
2019-01-26T05:42:13.869Z,12.20
2019-01-26T05:43:49.252Z,10.20
2019-01-26T05:45:24.971Z,9.60
2019-01-26T05:47:00.386Z,15.00
2019-01-26T05:48:35.760Z,14.20
2019-01-26T05:50:16.154Z,20.20
2019-01-26T05:51:51.441Z,16.40
2019-01-26T05:53:27.005Z,16.80
2019-01-26T05:55:02.506Z,19.80
2019-01-26T05:56:37.884Z,24.20
2019-01-26T05:58:13.306Z,18.00
2019-01-26T05:59:49.103Z,13.40
2019-01-26T06:01:27.510Z,15.60
2019-01-26T06:03:02.897Z,15.40
2019-01-26T06:04:38.359Z,21.00
2019-01-26T06:06:14.336Z,12.80
2019-01-26T06:07:54.793Z,18.80
2019-01-26T06:09:31.357Z,16.80
2019-01-26T06:11:07.203Z,19.40
2019-01-26T06:12:45.704Z,12.20
2019-01-26T06:14:21.150Z,23.60
2019-01-26T06:15:56.638Z,14.80
2019-01-26T06:17:33.731Z,15.60
2019-01-26T06:19:09.420Z,13.60
2019-01-26T06:20:44.947Z,18.20
2019-01-26T06:22:22.329Z,14.40
2019-01-26T06:23:58.252Z,15.00
2019-01-26T06:25:35.313Z,11.60
2019-01-26T06:27:11.481Z,17.60
2019-01-26T06:28:46.883Z,20.00
2019-01-26T06:30:26.047Z,20.60
2019-01-26T06:32:01.559Z,20.20
2019-01-26T06:33:37.628Z,20.00
2019-01-26T06:35:13.559Z,20.40
2019-01-26T06:36:50.407Z,18.20
2019-01-26T06:38:26.029Z,15.60
2019-01-26T06:40:01.301Z,17.60
2019-01-26T06:41:37.131Z,12.80
2019-01-26T06:43:13.187Z,15.00
2019-01-26T06:44:48.737Z,8.40
2019-01-26T06:46:30.501Z,13.00
2019-01-26T06:48:06.062Z,9.00
2019-01-26T06:49:43.082Z,21.80
2019-01-26T06:51:18.317Z,18.80
2019-01-26T06:52:54.070Z,20.20
2019-01-26T06:54:33.049Z,25.60
2019-01-26T06:56:08.813Z,28.00
2019-01-26T06:57:44.216Z,16.80
2019-01-26T06:59:19.494Z,17.40
2019-01-26T07:00:54.983Z,35.20
2019-01-26T07:02:31.994Z,24.40
2019-01-26T07:04:09.177Z,10.00
2019-01-26T07:06:15.193Z,21.40
2019-01-26T07:07:52.804Z,16.40
2019-01-26T07:09:28.367Z,13.00
2019-01-26T07:11:05.298Z,18.40
2019-01-26T07:12:43.003Z,25.40
2019-01-26T07:14:18.576Z,18.20
2019-01-26T07:15:57.814Z,24.20
2019-01-26T07:17:34.371Z,19.20
2019-01-26T07:19:09.951Z,16.80
2019-01-26T07:20:45.446Z,17.20
2019-01-26T07:22:20.933Z,17.60
2019-01-26T07:23:57.860Z,20.20
2019-01-26T07:25:33.906Z,20.60
2019-01-26T07:27:11.855Z,19.80
2019-01-26T07:28:50.310Z,18.80
2019-01-26T07:30:30.127Z,23.40
2019-01-26T07:32:05.921Z,18.40
2019-01-26T07:33:41.995Z,19.00
2019-01-26T07:35:17.766Z,17.60
2019-01-26T07:36:56.428Z,16.00
2019-01-26T07:38:36.184Z,18.60
2019-01-26T07:40:17.272Z,18.20
2019-01-26T07:41:52.797Z,16.00
2019-01-26T07:43:28.381Z,19.40
2019-01-26T07:45:07.132Z,16.60
2019-01-26T07:46:44.064Z,7.40
2019-01-26T07:48:23.208Z,19.40
2019-01-26T07:50:08.323Z,25.40
2019-01-26T07:51:43.830Z,21.20
2019-01-26T07:53:27.912Z,27.00
2019-01-26T07:55:02.956Z,29.00
2019-01-26T07:56:38.374Z,32.40
2019-01-26T07:58:18.282Z,25.00
2019-01-26T07:59:59.243Z,19.80
2019-01-26T08:01:34.925Z,18.20
2019-01-26T08:03:10.612Z,12.00
2019-01-26T08:04:49.726Z,19.00
2019-01-26T08:06:27.614Z,12.60
2019-01-26T08:08:04.816Z,18.00
2019-01-26T08:09:40.415Z,16.40
2019-01-26T08:11:19.357Z,10.00
2019-01-26T08:12:59.397Z,18.60
2019-01-26T08:14:35.371Z,9.80
2019-01-26T08:16:11.010Z,15.60
2019-01-26T08:17:46.595Z,20.20
2019-01-26T08:19:22.207Z,15.40
2019-01-26T08:21:00.885Z,18.00
2019-01-26T08:22:38.974Z,17.20
2019-01-26T08:24:14.389Z,16.40
2019-01-26T08:25:53.050Z,16.60
2019-01-26T08:27:34.779Z,7.00
2019-01-26T08:29:10.270Z,14.20
2019-01-26T08:30:45.863Z,18.60
2019-01-26T08:32:24.952Z,17.20
2019-01-26T08:34:02.973Z,11.60
2019-01-26T08:35:38.287Z,24.20
2019-01-26T08:37:14.310Z,19.40
2019-01-26T08:38:51.236Z,20.60
2019-01-26T08:40:26.797Z,13.80
2019-01-26T08:42:02.534Z,16.40
2019-01-26T08:43:37.850Z,18.60
2019-01-26T08:45:15.626Z,19.40
2019-01-26T08:46:55.293Z,15.00
2019-01-26T08:48:32.181Z,28.80
2019-01-26T08:50:15.332Z,23.00
2019-01-26T08:52:00.353Z,16.60
2019-01-26T08:53:35.789Z,11.40
2019-01-26T08:55:18.302Z,24.40
2019-01-26T08:56:56.880Z,10.40
2019-01-26T08:58:35.214Z,19.00
2019-01-26T09:00:25.073Z,15.00
2019-01-26T09:02:25.464Z,27.40
2019-01-26T09:04:05.675Z,17.40
2019-01-26T09:06:19.585Z,19.80
2019-01-26T09:07:55.117Z,15.80
2019-01-26T09:09:30.866Z,25.20
2019-01-26T09:11:08.429Z,15.80
2019-01-26T09:12:46.867Z,23.80
2019-01-26T09:14:32.216Z,18.80
2019-01-26T09:16:08.611Z,15.60
2019-01-26T09:17:45.441Z,20.80
2019-01-26T09:19:20.844Z,25.00
2019-01-26T09:20:57.919Z,13.80
2019-01-26T09:22:36.637Z,23.20
2019-01-26T09:24:12.489Z,8.20
2019-01-26T09:25:48.017Z,10.20
2019-01-26T09:27:25.923Z,21.60
2019-01-26T09:29:02.162Z,17.20
2019-01-26T09:30:37.403Z,20.80
2019-01-26T09:32:15.717Z,23.60
2019-01-26T09:33:51.131Z,16.80
2019-01-26T09:35:28.698Z,18.40
2019-01-26T09:37:07.407Z,22.20
2019-01-26T09:38:52.225Z,15.80
2019-01-26T09:40:27.703Z,21.40
2019-01-26T09:42:06.119Z,20.80
2019-01-26T09:43:41.929Z,18.80
2019-01-26T09:45:17.728Z,18.20
2019-01-26T09:46:55.005Z,13.80
2019-01-26T09:48:34.869Z,15.00
2019-01-26T09:50:13.388Z,16.40
2019-01-26T09:51:52.540Z,25.40
2019-01-26T09:53:30.006Z,16.00
2019-01-26T09:55:06.173Z,24.40
2019-01-26T09:56:41.413Z,23.60
2019-01-26T09:58:21.194Z,18.80
2019-01-26T09:59:59.861Z,12.40
2019-01-26T10:01:35.194Z,21.40
2019-01-26T10:03:11.174Z,24.20
2019-01-26T10:04:49.258Z,18.40
2019-01-26T10:06:24.921Z,11.60
2019-01-26T10:08:06.811Z,22.80
2019-01-26T10:09:42.583Z,17.80
2019-01-26T10:11:18.042Z,20.20
2019-01-26T10:12:53.324Z,14.20
2019-01-26T10:14:28.754Z,5.80
2019-01-26T10:16:09.190Z,10.40
2019-01-26T10:17:46.089Z,16.40
2019-01-26T10:19:26.775Z,14.20
2019-01-26T10:21:02.247Z,15.00
2019-01-26T10:22:43.858Z,12.60
2019-01-26T10:24:21.501Z,12.00
2019-01-26T10:25:56.991Z,11.20
2019-01-26T10:27:39.891Z,11.00
2019-01-26T10:29:19.606Z,15.40
2019-01-26T10:31:01.040Z,9.60
2019-01-26T10:32:38.647Z,12.80
2019-01-26T10:34:15.441Z,13.40
2019-01-26T10:36:21.487Z,11.20
2019-01-26T10:38:04.027Z,12.20
2019-01-26T10:39:44.960Z,6.80
2019-01-26T10:41:49.574Z,11.40
2019-01-26T10:43:25.726Z,17.20
2019-01-26T10:45:02.717Z,12.40
2019-01-26T10:46:48.659Z,13.80
2019-01-26T10:48:24.703Z,10.80
2019-01-26T10:50:07.051Z,12.60
2019-01-26T10:51:44.861Z,8.60
2019-01-26T10:53:24.690Z,9.20
2019-01-26T10:55:02.436Z,10.40
2019-01-26T10:56:37.749Z,14.20
2019-01-26T10:58:19.315Z,9.60
2019-01-26T11:00:03.297Z,11.40
2019-01-26T11:01:44.815Z,8.60
2019-01-26T11:03:23.323Z,7.80
2019-01-26T11:04:59.363Z,6.80
2019-01-26T11:06:37.327Z,6.20
2019-01-26T11:08:15.657Z,11.20
2019-01-26T11:09:56.717Z,6.80
2019-01-26T11:11:32.718Z,7.40
2019-01-26T11:13:13.514Z,5.20
2019-01-26T11:14:49.088Z,8.20
2019-01-26T11:16:32.443Z,4.40
2019-01-26T11:18:12.724Z,6.80
2019-01-26T11:19:49.742Z,8.60
2019-01-26T11:21:28.469Z,6.80
2019-01-26T11:23:03.867Z,9.00
2019-01-26T11:24:41.462Z,4.80
2019-01-26T11:26:19.978Z,9.40
2019-01-26T11:27:58.490Z,15.00
2019-01-26T11:29:36.288Z,12.60
2019-01-26T11:31:18.606Z,20.20
2019-01-26T11:32:53.807Z,9.60
2019-01-26T11:34:38.414Z,16.00
2019-01-26T11:36:14.472Z,13.00
2019-01-26T11:37:53.737Z,18.40
2019-01-26T11:39:37.163Z,16.00
2019-01-26T11:41:12.906Z,17.60
2019-01-26T11:42:48.986Z,13.80
2019-01-26T11:44:26.839Z,15.00
2019-01-26T11:46:19.979Z,16.80
2019-01-26T11:47:56.248Z,16.40
2019-01-26T11:49:31.723Z,18.00
2019-01-26T11:51:33.367Z,15.20
2019-01-26T11:53:14.390Z,10.80
2019-01-26T11:55:12.674Z,15.00
2019-01-26T11:56:56.873Z,18.20
2019-01-26T11:58:35.232Z,13.80
2019-01-26T12:00:47.517Z,9.80
2019-01-26T12:02:31.448Z,20.00
2019-01-26T12:04:25.729Z,14.20
2019-01-26T12:06:19.904Z,24.00
2019-01-26T12:07:58.982Z,15.00
2019-01-26T12:09:37.612Z,15.20
2019-01-26T12:11:16.340Z,6.60
2019-01-26T12:12:50.754Z,21.20
2019-01-26T12:14:26.392Z,16.40
2019-01-26T12:16:07.188Z,19.80
2019-01-26T12:17:48.295Z,12.80
2019-01-26T12:19:24.380Z,16.40
2019-01-26T12:21:00.753Z,10.20
2019-01-26T12:22:40.912Z,29.80
2019-01-26T12:24:16.946Z,20.20
2019-01-26T12:26:12.737Z,21.80
2019-01-26T12:27:50.545Z,19.00
2019-01-26T12:29:27.900Z,25.00
2019-01-26T12:31:05.708Z,19.00
2019-01-26T12:32:42.689Z,22.60
2019-01-26T12:34:21.603Z,23.40
2019-01-26T12:36:00.520Z,20.20
2019-01-26T12:37:39.326Z,18.00
2019-01-26T12:39:15.892Z,18.20
2019-01-26T12:41:04.615Z,21.80
2019-01-26T12:42:42.562Z,29.60
2019-01-26T12:44:23.984Z,17.20
2019-01-26T12:46:01.218Z,12.40
2019-01-26T12:47:44.065Z,19.40
2019-01-26T12:49:37.029Z,29.40
2019-01-26T12:51:16.835Z,24.60
2019-01-26T12:52:54.292Z,22.40
2019-01-26T12:54:34.360Z,19.80
2019-01-26T12:56:17.434Z,19.20
2019-01-26T12:57:55.494Z,20.60
2019-01-26T12:59:32.386Z,17.20
2019-01-26T13:01:13.122Z,9.20
2019-01-26T13:02:53.738Z,21.60
2019-01-26T13:04:32.906Z,15.20
2019-01-26T13:39:17.815Z,18.00
2019-01-26T13:40:59.697Z,16.20
2019-01-26T13:42:35.945Z,9.00
2019-01-26T13:44:15.166Z,15.00
2019-01-26T13:45:53.686Z,10.20
2019-01-26T13:47:37.793Z,15.20
2019-01-26T13:49:10.749Z,22.00
2019-01-26T13:50:51.929Z,17.80
2019-01-26T13:52:30.822Z,18.60
2019-01-26T13:54:08.708Z,17.60
2019-01-26T13:55:47.006Z,15.60
2019-01-26T13:57:22.526Z,18.40
2019-01-26T13:58:57.804Z,17.60
2019-01-26T14:00:35.339Z,13.40
2019-01-26T14:02:13.061Z,17.60
2019-01-26T14:03:48.853Z,6.00
2019-01-26T14:05:24.689Z,9.00
2019-01-26T14:07:00.354Z,12.60
2019-01-26T14:08:46.857Z,16.40
2019-01-26T14:10:42.491Z,9.20
2019-01-26T14:12:18.589Z,15.80
2019-01-26T14:13:56.520Z,10.00
2019-01-26T14:15:31.919Z,13.40
2019-01-26T14:17:08.163Z,10.60
2019-01-26T14:18:43.651Z,12.00
2019-01-26T14:20:20.897Z,14.20
2019-01-26T14:21:58.848Z,13.40
2019-01-26T14:23:36.273Z,10.00
2019-01-26T14:25:18.358Z,15.20
2019-01-26T14:26:57.553Z,11.60
2019-01-26T14:28:37.383Z,15.20
2019-01-26T14:30:25.331Z,14.80
2019-01-26T14:32:00.991Z,34.20
2019-01-26T14:33:40.012Z,27.00
2019-01-26T14:35:22.910Z,16.20
2019-01-26T14:37:04.264Z,11.20
2019-01-26T14:38:48.436Z,11.00
2019-01-26T14:43:29.845Z,10.60
2019-01-26T14:45:12.558Z,9.60
2019-01-26T14:46:52.466Z,10.00
2019-01-26T14:48:28.223Z,12.00
2019-01-26T14:50:08.936Z,9.00
2019-01-26T14:51:47.811Z,9.80
2019-01-26T14:53:23.222Z,9.40
2019-01-26T14:54:58.734Z,13.40
2019-01-26T14:56:34.883Z,14.60
2019-01-26T14:58:18.117Z,10.80
2019-01-26T15:00:04.393Z,7.40
2019-01-26T15:01:41.160Z,13.00
2019-01-26T15:03:22.495Z,9.40
2019-01-26T15:05:01.663Z,7.80
2019-01-26T15:06:39.455Z,13.00
2019-01-26T15:08:16.840Z,9.40
2019-01-26T15:09:52.408Z,9.80
2019-01-26T15:11:31.338Z,9.60
2019-01-26T15:13:08.502Z,12.60
2019-01-26T15:14:45.937Z,10.00
2019-01-26T15:16:25.480Z,8.40
2019-01-26T15:18:12.432Z,11.20
2019-01-26T15:19:48.000Z,5.20
2019-01-26T15:21:23.680Z,9.60
2019-01-26T15:23:01.838Z,9.00
2019-01-26T15:24:46.180Z,9.80
2019-01-26T15:26:22.394Z,10.00
2019-01-26T15:27:58.567Z,12.40
2019-01-26T15:29:38.479Z,7.80
2019-01-26T15:31:16.489Z,23.60
2019-01-26T15:32:57.793Z,13.00
2019-01-26T15:34:39.394Z,14.20
2019-01-26T15:36:17.866Z,9.80
2019-01-26T15:37:54.190Z,15.40
2019-01-26T15:39:34.913Z,11.60
2019-01-26T15:41:10.155Z,12.00
2019-01-26T15:42:51.081Z,15.00
2019-01-26T15:44:26.972Z,12.40
2019-01-26T15:46:04.042Z,10.00
2019-01-26T15:47:41.799Z,17.60
2019-01-26T15:49:21.034Z,14.80
2019-01-26T15:50:56.658Z,7.20
2019-01-26T15:52:32.931Z,7.40
2019-01-26T15:54:11.630Z,11.40
2019-01-26T15:55:57.029Z,6.00
2019-01-26T15:57:29.899Z,9.20
2019-01-26T15:59:05.481Z,12.60
2019-01-26T16:00:43.518Z,12.00
2019-01-26T16:02:20.634Z,9.80
2019-01-26T16:03:57.058Z,9.40
2019-01-26T16:05:32.470Z,7.80
2019-01-26T16:07:07.748Z,9.20
2019-01-26T16:08:46.805Z,6.20
2019-01-26T16:10:26.671Z,8.20
2019-01-26T16:12:03.334Z,6.80
2019-01-26T16:13:39.252Z,4.40
2019-01-26T16:15:20.746Z,9.00
2019-01-26T16:16:56.133Z,9.00
2019-01-26T16:18:33.200Z,9.20
2019-01-26T16:20:09.910Z,9.40
2019-01-26T16:21:53.140Z,9.00
2019-01-26T16:23:29.120Z,3.20
2019-01-26T16:25:07.454Z,8.60
2019-01-26T16:26:46.143Z,6.00
2019-01-26T16:28:32.980Z,9.60
2019-01-26T16:30:12.866Z,9.80
2019-01-26T16:31:53.760Z,6.00
2019-01-26T16:33:34.649Z,1.00
2019-01-26T16:35:20.369Z,7.60
2019-01-26T16:36:55.863Z,8.60
2019-01-26T16:38:36.325Z,4.80
2019-01-26T16:40:18.453Z,9.80
2019-01-26T16:42:25.771Z,7.00
2019-01-26T16:44:07.735Z,7.00
2019-01-26T16:45:47.467Z,7.40
2019-01-26T16:47:28.961Z,5.80
2019-01-26T16:49:08.313Z,6.80
2019-01-26T16:50:52.421Z,7.00
2019-01-26T16:52:34.305Z,6.00
2019-01-26T16:54:16.578Z,7.00
2019-01-26T16:56:01.422Z,4.00
2019-01-26T16:57:37.754Z,7.40
2019-01-26T16:59:15.742Z,1.00
2019-01-26T17:00:59.510Z,7.00
2019-01-26T17:02:35.944Z,6.20
2019-01-26T17:04:22.891Z,4.80
2019-01-26T17:06:13.150Z,6.20
2019-01-26T17:07:43.430Z,7.80
2019-01-26T17:09:18.718Z,6.20
2019-01-26T17:10:55.988Z,5.80
2019-01-26T17:12:35.443Z,6.40
2019-01-26T17:14:11.735Z,4.40
2019-01-26T17:15:47.612Z,4.00
2019-01-26T17:17:24.878Z,4.00
2019-01-26T17:19:07.865Z,6.40
2019-01-26T17:20:45.722Z,9.80
2019-01-26T17:22:23.820Z,8.20
2019-01-26T17:23:59.856Z,4.00
2019-01-26T17:25:35.326Z,11.20
2019-01-26T17:27:12.773Z,8.60
2019-01-26T17:28:52.021Z,6.40
2019-01-26T17:30:31.232Z,15.80
2019-01-26T17:32:08.961Z,9.00
2019-01-26T17:33:52.071Z,10.20
2019-01-26T17:35:31.053Z,8.60
2019-01-26T17:37:11.589Z,9.00
2019-01-26T17:38:50.384Z,8.20
2019-01-26T17:40:28.878Z,7.00
2019-01-26T17:42:08.210Z,20.20
2019-01-26T17:43:47.462Z,14.60
2019-01-26T17:45:33.644Z,16.00
2019-01-26T17:47:11.304Z,14.20
2019-01-26T17:48:48.645Z,14.60
2019-01-26T17:50:27.693Z,14.60
2019-01-26T17:52:07.526Z,15.60
2019-01-26T17:53:45.096Z,2.20
2019-01-26T17:55:24.607Z,7.40
2019-01-26T17:57:00.413Z,15.00
2019-01-26T17:58:35.868Z,18.20
2019-01-26T18:00:48.471Z,18.40
2019-01-26T18:02:39.658Z,9.40
2019-01-26T18:04:17.414Z,13.80
2019-01-26T18:05:53.384Z,13.00
2019-01-26T18:07:44.448Z,22.20
2019-01-26T18:09:21.321Z,27.00
2019-01-26T18:11:00.965Z,7.20
2019-01-26T18:12:39.062Z,24.20
2019-01-26T18:14:23.699Z,8.80
2019-01-26T18:16:04.060Z,6.60
2019-01-26T18:17:45.294Z,5.60
2019-01-26T18:19:27.389Z,21.00
2019-01-26T18:21:03.135Z,10.00
2019-01-26T18:22:46.349Z,9.40
2019-01-26T18:24:29.084Z,15.80
2019-01-26T18:26:05.149Z,16.00
2019-01-26T18:27:47.218Z,10.00
2019-01-26T18:29:25.766Z,6.80
2019-01-26T18:31:05.610Z,13.40
2019-01-26T18:32:43.944Z,16.20
2019-01-26T18:34:29.984Z,14.20
2019-01-26T18:36:06.960Z,13.40
2019-01-26T18:37:50.835Z,16.00
2019-01-26T18:39:30.068Z,21.60
2019-01-26T18:41:08.210Z,11.60
2019-01-26T18:42:49.817Z,8.20
2019-01-26T18:44:27.199Z,11.60
2019-01-26T18:46:12.191Z,19.80
2019-01-26T18:47:53.801Z,17.80
2019-01-26T18:49:34.141Z,9.40
2019-01-26T18:51:13.416Z,9.00
2019-01-26T18:52:54.473Z,10.00
2019-01-26T18:54:43.377Z,9.00
2019-01-26T18:56:24.239Z,16.40
2019-01-26T18:58:01.442Z,15.80
2019-01-26T18:59:38.337Z,13.00
2019-01-26T19:01:14.236Z,14.40
2019-01-26T19:02:51.953Z,10.40
2019-01-26T19:04:47.751Z,43.40
2019-01-26T19:06:33.029Z,14.20
2019-01-26T19:08:22.791Z,12.40
2019-01-26T19:10:01.586Z,10.60
2019-01-26T19:11:45.331Z,4.00
2019-01-26T19:13:24.148Z,8.80
2019-01-26T19:15:00.756Z,14.20
2019-01-26T19:16:43.319Z,15.80
2019-01-26T19:18:27.110Z,9.00
2019-01-26T19:20:13.570Z,12.40
2019-01-26T19:21:50.517Z,7.40
2019-01-26T19:23:31.075Z,10.60
2019-01-26T19:25:12.871Z,6.00
2019-01-26T19:26:51.442Z,20.00
2019-01-26T19:28:34.646Z,31.80
2019-01-26T19:30:11.290Z,20.80
2019-01-26T19:31:56.226Z,15.00
2019-01-26T19:33:41.394Z,4.40
2019-01-26T19:35:20.312Z,11.20
2019-01-26T19:37:09.105Z,11.20
2019-01-26T19:38:46.676Z,9.80
2019-01-26T19:40:30.962Z,7.00
2019-01-26T19:42:16.933Z,3.80
2019-01-26T19:43:57.727Z,7.20
2019-01-26T19:45:46.843Z,7.80
2019-01-26T19:47:26.615Z,9.20
2019-01-26T19:49:07.635Z,4.80
2019-01-26T19:51:12.083Z,4.00
2019-01-26T19:53:04.292Z,10.80
2019-01-26T19:54:50.123Z,20.60
2019-01-26T19:56:38.816Z,10.00
2019-01-26T19:58:22.837Z,6.00
2019-01-26T20:00:03.600Z,5.20
2019-01-26T20:01:47.150Z,2.60
2019-01-26T20:03:24.562Z,7.40
2019-01-26T20:05:02.879Z,8.20
2019-01-26T20:06:45.728Z,9.80
2019-01-26T20:08:22.810Z,6.00
2019-01-26T20:10:00.206Z,9.60
2019-01-26T20:11:44.154Z,9.40
2019-01-26T20:13:28.871Z,8.20
2019-01-26T20:15:07.793Z,6.00
2019-01-26T20:16:47.301Z,6.80
2019-01-26T20:18:24.182Z,4.40
2019-01-26T20:20:02.543Z,11.60
2019-01-26T20:21:41.807Z,9.00
2019-01-26T20:23:17.339Z,10.40
2019-01-26T20:25:02.363Z,8.60
2019-01-26T20:26:55.260Z,6.00
2019-01-26T20:28:34.854Z,9.00
2019-01-26T20:30:14.800Z,3.00
2019-01-26T20:31:52.397Z,4.00
2019-01-26T20:33:28.517Z,4.00
2019-01-26T20:35:11.549Z,6.60
2019-01-26T20:36:54.272Z,10.40
2019-01-26T20:38:29.188Z,6.00
2019-01-26T20:40:11.375Z,8.60
2019-01-26T20:41:50.291Z,6.00
2019-01-26T20:43:34.671Z,4.00
2019-01-26T20:45:24.780Z,8.60
2019-01-26T20:47:09.915Z,6.80
2019-01-26T20:48:51.262Z,6.60
2019-01-26T20:50:38.961Z,5.20
2019-01-26T20:52:13.957Z,7.00
2019-01-26T20:53:52.015Z,3.00
2019-01-26T20:55:33.919Z,7.00
2019-01-26T20:57:12.828Z,6.80
2019-01-26T20:58:51.292Z,7.00
2019-01-26T21:00:35.540Z,6.20
2019-01-26T21:02:13.265Z,7.80
2019-01-26T21:03:49.359Z,9.00
2019-01-26T21:05:27.444Z,7.00
2019-01-26T21:07:07.598Z,6.20
2019-01-26T21:08:43.481Z,6.60
2019-01-26T21:10:27.201Z,3.00
2019-01-26T21:12:04.290Z,6.20
2019-01-26T21:13:49.437Z,3.40
2019-01-26T21:15:28.257Z,3.60
2019-01-26T21:17:12.471Z,4.60
2019-01-26T21:18:50.983Z,6.00
2019-01-26T21:20:30.860Z,1.00
2019-01-26T21:22:09.011Z,5.20
2019-01-26T21:23:48.894Z,5.20
2019-01-26T21:25:37.710Z,4.00
2019-01-26T21:27:22.274Z,4.80
2019-01-26T21:29:15.671Z,5.60
2019-01-26T21:30:56.537Z,7.80
2019-01-26T21:32:54.387Z,5.60
2019-01-26T21:35:01.799Z,6.00
2019-01-26T21:36:56.822Z,1.80
2019-01-26T21:38:44.057Z,1.00
2019-01-26T21:40:45.443Z,0.00
2019-01-26T21:42:45.189Z,5.60
2019-01-26T21:44:24.947Z,4.00
2019-01-26T21:46:19.303Z,4.00
2019-01-26T21:48:02.578Z,4.00
2019-01-26T21:49:45.192Z,1.00
2019-01-26T21:51:39.087Z,6.00
2019-01-26T21:53:43.498Z,3.80
2019-01-26T21:55:33.795Z,1.00
2019-01-26T21:57:22.294Z,3.40
2019-01-26T21:59:09.384Z,3.80
2019-01-26T22:01:00.990Z,3.00
2019-01-26T22:02:45.387Z,1.00
2019-01-26T22:04:27.675Z,3.00
2019-01-26T22:06:21.484Z,3.20
2019-01-26T22:08:13.809Z,3.80
2019-01-26T22:09:56.270Z,4.00
2019-01-26T22:11:37.951Z,0.00
2019-01-26T22:15:08.553Z,2.20
2019-01-26T22:16:58.293Z,4.00